sensor_id;sensor_type;location;lat;lon;timestamp;P1;durP1;ratioP1;P2;durP2;ratioP2
17794;SDS011;9021;50.882;4.326;2022-09-30T00:01:08;9.23;;;8.35;;
17794;SDS011;9021;50.882;4.326;2022-09-30T00:03:34;9.43;;;8.43;;
17794;SDS011;9021;50.882;4.326;2022-09-30T00:06:01;11.57;;;8.90;;
17794;SDS011;9021;50.882;4.326;2022-09-30T00:08:28;10.30;;;8.60;;
17794;SDS011;9021;50.882;4.326;2022-09-30T00:11:07;14.48;;;9.23;;
17794;SDS011;9021;50.882;4.326;2022-09-30T00:13:37;11.23;;;9.55;;
17794;SDS011;9021;50.882;4.326;2022-09-30T00:16:04;11.20;;;9.10;;
17794;SDS011;9021;50.882;4.326;2022-09-30T00:18:30;12.07;;;8.40;;
17794;SDS011;9021;50.882;4.326;2022-09-30T00:20:56;10.30;;;9.15;;
17794;SDS011;9021;50.882;4.326;2022-09-30T00:23:22;11.40;;;8.75;;
17794;SDS011;9021;50.882;4.326;2022-09-30T00:25:48;9.57;;;8.55;;
17794;SDS011;9021;50.882;4.326;2022-09-30T00:28:14;10.55;;;8.18;;
17794;SDS011;9021;50.882;4.326;2022-09-30T00:30:40;9.82;;;8.82;;
17794;SDS011;9021;50.882;4.326;2022-09-30T00:33:06;12.90;;;8.68;;
17794;SDS011;9021;50.882;4.326;2022-09-30T00:35:32;10.73;;;8.80;;
17794;SDS011;9021;50.882;4.326;2022-09-30T00:37:58;11.05;;;9.57;;
17794;SDS011;9021;50.882;4.326;2022-09-30T00:40:24;12.75;;;8.18;;
17794;SDS011;9021;50.882;4.326;2022-09-30T00:42:51;10.90;;;8.05;;
17794;SDS011;9021;50.882;4.326;2022-09-30T00:45:16;13.55;;;9.05;;
17794;SDS011;9021;50.882;4.326;2022-09-30T00:47:44;9.48;;;8.48;;
17794;SDS011;9021;50.882;4.326;2022-09-30T00:52:53;16.88;;;10.52;;
17794;SDS011;9021;50.882;4.326;2022-09-30T00:57:55;10.18;;;9.05;;
17794;SDS011;9021;50.882;4.326;2022-09-30T01:00:22;14.13;;;9.13;;
17794;SDS011;9021;50.882;4.326;2022-09-30T01:02:48;10.02;;;8.93;;
17794;SDS011;9021;50.882;4.326;2022-09-30T01:05:14;10.20;;;9.20;;
17794;SDS011;9021;50.882;4.326;2022-09-30T01:07:41;10.50;;;9.50;;
17794;SDS011;9021;50.882;4.326;2022-09-30T01:10:07;11.73;;;10.25;;
17794;SDS011;9021;50.882;4.326;2022-09-30T01:12:32;12.57;;;9.70;;
17794;SDS011;9021;50.882;4.326;2022-09-30T01:14:58;12.00;;;9.40;;
17794;SDS011;9021;50.882;4.326;2022-09-30T01:25:52;12.85;;;9.23;;
17794;SDS011;9021;50.882;4.326;2022-09-30T01:31:26;11.80;;;9.25;;
17794;SDS011;9021;50.882;4.326;2022-09-30T01:39:54;13.05;;;9.77;;
17794;SDS011;9021;50.882;4.326;2022-09-30T01:42:30;12.32;;;9.40;;
17794;SDS011;9021;50.882;4.326;2022-09-30T01:50:59;11.45;;;9.70;;
17794;SDS011;9021;50.882;4.326;2022-09-30T01:56:09;10.23;;;9.13;;
17794;SDS011;9021;50.882;4.326;2022-09-30T01:59:01;14.00;;;10.07;;
17794;SDS011;9021;50.882;4.326;2022-09-30T02:01:36;11.30;;;9.50;;
17794;SDS011;9021;50.882;4.326;2022-09-30T02:04:06;10.85;;;9.68;;
17794;SDS011;9021;50.882;4.326;2022-09-30T02:06:40;11.60;;;10.40;;
17794;SDS011;9021;50.882;4.326;2022-09-30T02:09:20;10.75;;;9.32;;
17794;SDS011;9021;50.882;4.326;2022-09-30T02:11:50;15.00;;;9.95;;
17794;SDS011;9021;50.882;4.326;2022-09-30T02:17:06;11.77;;;9.85;;
17794;SDS011;9021;50.882;4.326;2022-09-30T02:19:49;10.73;;;9.48;;
17794;SDS011;9021;50.882;4.326;2022-09-30T02:22:25;18.13;;;10.05;;
17794;SDS011;9021;50.882;4.326;2022-09-30T02:27:23;13.25;;;10.38;;
17794;SDS011;9021;50.882;4.326;2022-09-30T02:29:56;12.73;;;10.10;;
17794;SDS011;9021;50.882;4.326;2022-09-30T02:32:30;11.25;;;9.85;;
17794;SDS011;9021;50.882;4.326;2022-09-30T02:35:02;12.23;;;10.20;;
17794;SDS011;9021;50.882;4.326;2022-09-30T02:37:35;11.05;;;9.40;;
17794;SDS011;9021;50.882;4.326;2022-09-30T02:40:12;11.00;;;9.60;;
17794;SDS011;9021;50.882;4.326;2022-09-30T02:42:48;13.05;;;9.43;;
17794;SDS011;9021;50.882;4.326;2022-09-30T02:45:15;11.32;;;10.10;;
17794;SDS011;9021;50.882;4.326;2022-09-30T02:50:17;11.57;;;10.15;;
17794;SDS011;9021;50.882;4.326;2022-09-30T02:53:01;13.27;;;10.43;;
17794;SDS011;9021;50.882;4.326;2022-09-30T02:58:30;11.57;;;10.43;;
17794;SDS011;9021;50.882;4.326;2022-09-30T03:01:00;12.07;;;10.85;;
17794;SDS011;9021;50.882;4.326;2022-09-30T03:05:54;12.63;;;9.82;;
17794;SDS011;9021;50.882;4.326;2022-09-30T03:08:19;10.80;;;9.75;;
17794;SDS011;9021;50.882;4.326;2022-09-30T03:10:46;12.50;;;9.82;;
17794;SDS011;9021;50.882;4.326;2022-09-30T03:22:08;12.13;;;9.35;;
17794;SDS011;9021;50.882;4.326;2022-09-30T03:24:55;10.05;;;9.05;;
17794;SDS011;9021;50.882;4.326;2022-09-30T03:28:00;10.13;;;9.15;;
17794;SDS011;9021;50.882;4.326;2022-09-30T03:30:56;10.43;;;9.15;;
17794;SDS011;9021;50.882;4.326;2022-09-30T03:33:26;10.60;;;8.98;;
17794;SDS011;9021;50.882;4.326;2022-09-30T03:48:42;12.13;;;9.40;;
17794;SDS011;9021;50.882;4.326;2022-09-30T03:51:10;11.40;;;9.85;;
17794;SDS011;9021;50.882;4.326;2022-09-30T03:53:40;10.05;;;9.13;;
17794;SDS011;9021;50.882;4.326;2022-09-30T03:56:07;12.23;;;9.80;;
17794;SDS011;9021;50.882;4.326;2022-09-30T03:58:33;11.02;;;9.93;;
17794;SDS011;9021;50.882;4.326;2022-09-30T04:00:59;11.63;;;10.52;;
17794;SDS011;9021;50.882;4.326;2022-09-30T04:03:25;12.07;;;10.38;;
17794;SDS011;9021;50.882;4.326;2022-09-30T04:05:52;12.13;;;10.30;;
17794;SDS011;9021;50.882;4.326;2022-09-30T04:08:17;16.10;;;10.68;;
17794;SDS011;9021;50.882;4.326;2022-09-30T04:10:43;12.88;;;10.95;;
17794;SDS011;9021;50.882;4.326;2022-09-30T04:13:09;11.35;;;10.25;;
17794;SDS011;9021;50.882;4.326;2022-09-30T04:15:36;11.43;;;10.43;;
17794;SDS011;9021;50.882;4.326;2022-09-30T04:20:29;11.57;;;9.65;;
17794;SDS011;9021;50.882;4.326;2022-09-30T04:22:58;14.25;;;10.30;;
17794;SDS011;9021;50.882;4.326;2022-09-30T04:25:25;14.35;;;10.50;;
17794;SDS011;9021;50.882;4.326;2022-09-30T04:27:51;15.73;;;11.30;;
17794;SDS011;9021;50.882;4.326;2022-09-30T04:32:43;12.38;;;10.52;;
17794;SDS011;9021;50.882;4.326;2022-09-30T04:35:10;11.75;;;10.57;;
17794;SDS011;9021;50.882;4.326;2022-09-30T04:37:40;13.68;;;12.27;;
17794;SDS011;9021;50.882;4.326;2022-09-30T04:40:07;12.15;;;10.52;;
17794;SDS011;9021;50.882;4.326;2022-09-30T04:42:34;13.48;;;12.10;;
17794;SDS011;9021;50.882;4.326;2022-09-30T04:47:27;16.33;;;12.55;;
17794;SDS011;9021;50.882;4.326;2022-09-30T04:49:54;12.15;;;10.40;;
17794;SDS011;9021;50.882;4.326;2022-09-30T04:52:20;13.32;;;12.07;;
17794;SDS011;9021;50.882;4.326;2022-09-30T04:54:46;14.30;;;12.65;;
17794;SDS011;9021;50.882;4.326;2022-09-30T04:57:11;13.82;;;12.50;;
17794;SDS011;9021;50.882;4.326;2022-09-30T04:59:38;13.27;;;12.07;;
17794;SDS011;9021;50.882;4.326;2022-09-30T05:02:03;13.65;;;11.25;;
17794;SDS011;9021;50.882;4.326;2022-09-30T05:04:29;13.65;;;12.18;;
17794;SDS011;9021;50.882;4.326;2022-09-30T05:06:57;13.77;;;12.00;;
17794;SDS011;9021;50.882;4.326;2022-09-30T05:09:24;13.77;;;11.80;;
17794;SDS011;9021;50.882;4.326;2022-09-30T05:11:49;14.80;;;13.27;;
17794;SDS011;9021;50.882;4.326;2022-09-30T05:14:16;14.65;;;13.25;;
17794;SDS011;9021;50.882;4.326;2022-09-30T05:16:41;16.83;;;15.18;;
17794;SDS011;9021;50.882;4.326;2022-09-30T05:19:07;20.05;;;17.60;;
17794;SDS011;9021;50.882;4.326;2022-09-30T05:21:32;20.00;;;17.92;;
17794;SDS011;9021;50.882;4.326;2022-09-30T05:23:59;22.50;;;19.45;;
17794;SDS011;9021;50.882;4.326;2022-09-30T05:26:25;24.35;;;20.58;;
17794;SDS011;9021;50.882;4.326;2022-09-30T05:28:51;27.40;;;23.60;;
17794;SDS011;9021;50.882;4.326;2022-09-30T05:31:16;28.20;;;22.33;;
17794;SDS011;9021;50.882;4.326;2022-09-30T05:33:44;28.85;;;22.55;;
17794;SDS011;9021;50.882;4.326;2022-09-30T05:36:12;24.83;;;22.33;;
17794;SDS011;9021;50.882;4.326;2022-09-30T05:38:39;24.50;;;21.95;;
17794;SDS011;9021;50.882;4.326;2022-09-30T05:41:08;29.65;;;23.58;;
17794;SDS011;9021;50.882;4.326;2022-09-30T05:43:36;25.50;;;22.90;;
17794;SDS011;9021;50.882;4.326;2022-09-30T05:46:03;24.25;;;21.83;;
17794;SDS011;9021;50.882;4.326;2022-09-30T05:48:29;21.15;;;18.48;;
17794;SDS011;9021;50.882;4.326;2022-09-30T05:50:55;25.70;;;18.48;;
17794;SDS011;9021;50.882;4.326;2022-09-30T05:53:22;19.33;;;17.10;;
17794;SDS011;9021;50.882;4.326;2022-09-30T05:55:48;21.33;;;19.33;;
17794;SDS011;9021;50.882;4.326;2022-09-30T05:58:14;21.45;;;18.30;;
17794;SDS011;9021;50.882;4.326;2022-09-30T06:00:41;21.20;;;18.90;;
17794;SDS011;9021;50.882;4.326;2022-09-30T06:03:08;23.17;;;20.70;;
17794;SDS011;9021;50.882;4.326;2022-09-30T06:05:34;21.50;;;18.05;;
17794;SDS011;9021;50.882;4.326;2022-09-30T06:08:01;21.60;;;18.85;;
17794;SDS011;9021;50.882;4.326;2022-09-30T06:10:27;30.67;;;21.33;;
17794;SDS011;9021;50.882;4.326;2022-09-30T06:12:53;23.33;;;20.83;;
17794;SDS011;9021;50.882;4.326;2022-09-30T06:15:18;23.63;;;21.13;;
17794;SDS011;9021;50.882;4.326;2022-09-30T06:17:44;23.33;;;20.83;;
17794;SDS011;9021;50.882;4.326;2022-09-30T06:20:15;24.33;;;20.67;;
17794;SDS011;9021;50.882;4.326;2022-09-30T06:22:41;22.73;;;20.20;;
17794;SDS011;9021;50.882;4.326;2022-09-30T06:25:07;31.35;;;20.55;;
17794;SDS011;9021;50.882;4.326;2022-09-30T06:27:33;39.00;;;20.85;;
17794;SDS011;9021;50.882;4.326;2022-09-30T06:29:58;23.70;;;20.55;;
17794;SDS011;9021;50.882;4.326;2022-09-30T06:32:24;22.08;;;19.60;;
17794;SDS011;9021;50.882;4.326;2022-09-30T06:34:50;22.67;;;18.30;;
17794;SDS011;9021;50.882;4.326;2022-09-30T06:37:16;22.95;;;19.40;;
17794;SDS011;9021;50.882;4.326;2022-09-30T06:39:42;20.45;;;18.25;;
17794;SDS011;9021;50.882;4.326;2022-09-30T06:42:08;20.55;;;18.38;;
17794;SDS011;9021;50.882;4.326;2022-09-30T06:44:35;20.73;;;16.70;;
17794;SDS011;9021;50.882;4.326;2022-09-30T06:47:01;19.48;;;17.55;;
17794;SDS011;9021;50.882;4.326;2022-09-30T06:49:26;18.73;;;16.73;;
17794;SDS011;9021;50.882;4.326;2022-09-30T06:51:52;20.00;;;15.52;;
17794;SDS011;9021;50.882;4.326;2022-09-30T06:54:18;16.08;;;13.30;;
17794;SDS011;9021;50.882;4.326;2022-09-30T06:56:45;14.85;;;12.77;;
17794;SDS011;9021;50.882;4.326;2022-09-30T06:59:11;17.20;;;12.40;;
17794;SDS011;9021;50.882;4.326;2022-09-30T07:01:40;13.77;;;11.90;;
17794;SDS011;9021;50.882;4.326;2022-09-30T07:06:34;14.57;;;11.90;;
17794;SDS011;9021;50.882;4.326;2022-09-30T07:09:00;15.55;;;12.02;;
17794;SDS011;9021;50.882;4.326;2022-09-30T07:11:25;13.45;;;10.90;;
17794;SDS011;9021;50.882;4.326;2022-09-30T07:13:51;15.90;;;10.90;;
17794;SDS011;9021;50.882;4.326;2022-09-30T07:16:18;17.48;;;10.93;;
17794;SDS011;9021;50.882;4.326;2022-09-30T07:18:45;15.45;;;11.63;;
17794;SDS011;9021;50.882;4.326;2022-09-30T07:23:39;11.48;;;9.35;;
17794;SDS011;9021;50.882;4.326;2022-09-30T07:26:11;10.27;;;9.02;;
17794;SDS011;9021;50.882;4.326;2022-09-30T07:28:41;11.55;;;9.48;;
17794;SDS011;9021;50.882;4.326;2022-09-30T07:31:08;10.70;;;8.88;;
17794;SDS011;9021;50.882;4.326;2022-09-30T07:33:36;10.57;;;8.90;;
17794;SDS011;9021;50.882;4.326;2022-09-30T07:36:04;13.35;;;9.18;;
17794;SDS011;9021;50.882;4.326;2022-09-30T07:38:32;15.38;;;9.15;;
17794;SDS011;9021;50.882;4.326;2022-09-30T07:41:05;14.40;;;9.55;;
17794;SDS011;9021;50.882;4.326;2022-09-30T07:43:34;13.20;;;8.73;;
17794;SDS011;9021;50.882;4.326;2022-09-30T07:46:08;13.25;;;9.23;;
17794;SDS011;9021;50.882;4.326;2022-09-30T07:48:44;12.95;;;9.18;;
17794;SDS011;9021;50.882;4.326;2022-09-30T07:51:16;13.90;;;9.68;;
17794;SDS011;9021;50.882;4.326;2022-09-30T07:53:45;13.75;;;9.70;;
17794;SDS011;9021;50.882;4.326;2022-09-30T07:56:15;14.65;;;10.35;;
17794;SDS011;9021;50.882;4.326;2022-09-30T07:58:44;14.48;;;9.70;;
17794;SDS011;9021;50.882;4.326;2022-09-30T08:01:10;13.00;;;9.90;;
17794;SDS011;9021;50.882;4.326;2022-09-30T08:03:37;15.40;;;10.35;;
17794;SDS011;9021;50.882;4.326;2022-09-30T08:06:07;14.10;;;10.20;;
17794;SDS011;9021;50.882;4.326;2022-09-30T08:08:35;15.18;;;10.23;;
17794;SDS011;9021;50.882;4.326;2022-09-30T08:11:01;10.90;;;9.80;;
17794;SDS011;9021;50.882;4.326;2022-09-30T08:13:28;12.45;;;9.27;;
17794;SDS011;9021;50.882;4.326;2022-09-30T08:15:54;11.60;;;9.63;;
17794;SDS011;9021;50.882;4.326;2022-09-30T08:18:19;11.50;;;8.98;;
17794;SDS011;9021;50.882;4.326;2022-09-30T08:20:45;12.73;;;10.02;;
17794;SDS011;9021;50.882;4.326;2022-09-30T08:23:11;12.48;;;9.40;;
17794;SDS011;9021;50.882;4.326;2022-09-30T08:25:37;12.63;;;9.38;;
17794;SDS011;9021;50.882;4.326;2022-09-30T08:28:02;11.68;;;8.90;;
17794;SDS011;9021;50.882;4.326;2022-09-30T08:30:28;11.27;;;8.43;;
17794;SDS011;9021;50.882;4.326;2022-09-30T08:32:53;11.32;;;8.25;;
17794;SDS011;9021;50.882;4.326;2022-09-30T08:35:19;11.15;;;8.13;;
17794;SDS011;9021;50.882;4.326;2022-09-30T08:37:45;10.10;;;8.77;;
17794;SDS011;9021;50.882;4.326;2022-09-30T08:40:32;15.50;;;8.60;;
17794;SDS011;9021;50.882;4.326;2022-09-30T08:46:04;10.88;;;7.78;;
17794;SDS011;9021;50.882;4.326;2022-09-30T08:51:06;13.40;;;8.20;;
17794;SDS011;9021;50.882;4.326;2022-09-30T08:53:48;13.32;;;8.38;;
17794;SDS011;9021;50.882;4.326;2022-09-30T08:56:28;9.40;;;7.57;;
17794;SDS011;9021;50.882;4.326;2022-09-30T08:59:00;17.63;;;10.00;;
17794;SDS011;9021;50.882;4.326;2022-09-30T09:01:32;14.52;;;9.40;;
17794;SDS011;9021;50.882;4.326;2022-09-30T09:04:00;12.00;;;9.13;;
17794;SDS011;9021;50.882;4.326;2022-09-30T09:12:10;12.95;;;8.85;;
17794;SDS011;9021;50.882;4.326;2022-09-30T09:18:29;12.88;;;8.30;;
17794;SDS011;9021;50.882;4.326;2022-09-30T09:20:55;9.00;;;6.57;;
17794;SDS011;9021;50.882;4.326;2022-09-30T09:23:24;11.18;;;6.28;;
17794;SDS011;9021;50.882;4.326;2022-09-30T09:25:52;8.30;;;6.22;;
17794;SDS011;9021;50.882;4.326;2022-09-30T09:28:24;13.23;;;7.53;;
17794;SDS011;9021;50.882;4.326;2022-09-30T09:31:07;11.48;;;6.97;;
17794;SDS011;9021;50.882;4.326;2022-09-30T09:33:38;8.75;;;6.13;;
17794;SDS011;9021;50.882;4.326;2022-09-30T09:47:10;7.82;;;4.57;;
17794;SDS011;9021;50.882;4.326;2022-09-30T09:49:40;6.38;;;5.13;;
17794;SDS011;9021;50.882;4.326;2022-09-30T09:54:38;6.57;;;4.40;;
17794;SDS011;9021;50.882;4.326;2022-09-30T09:57:07;7.43;;;4.05;;
17794;SDS011;9021;50.882;4.326;2022-09-30T09:59:34;7.43;;;4.75;;
17794;SDS011;9021;50.882;4.326;2022-09-30T10:02:01;6.18;;;4.20;;
17794;SDS011;9021;50.882;4.326;2022-09-30T10:04:27;4.40;;;3.33;;
17794;SDS011;9021;50.882;4.326;2022-09-30T10:06:58;6.65;;;4.13;;
17794;SDS011;9021;50.882;4.326;2022-09-30T10:14:30;6.13;;;4.03;;
17794;SDS011;9021;50.882;4.326;2022-09-30T10:16:58;16.95;;;4.10;;
17794;SDS011;9021;50.882;4.326;2022-09-30T10:19:26;6.40;;;3.78;;
17794;SDS011;9021;50.882;4.326;2022-09-30T10:24:36;6.55;;;4.00;;
17794;SDS011;9021;50.882;4.326;2022-09-30T10:27:03;9.18;;;4.50;;
17794;SDS011;9021;50.882;4.326;2022-09-30T10:29:48;5.93;;;3.50;;
17794;SDS011;9021;50.882;4.326;2022-09-30T10:32:14;5.55;;;3.63;;
17794;SDS011;9021;50.882;4.326;2022-09-30T10:34:41;8.50;;;4.80;;
17794;SDS011;9021;50.882;4.326;2022-09-30T10:37:09;8.65;;;4.85;;
17794;SDS011;9021;50.882;4.326;2022-09-30T10:39:40;5.13;;;3.70;;
17794;SDS011;9021;50.882;4.326;2022-09-30T10:44:57;9.98;;;4.05;;
17794;SDS011;9021;50.882;4.326;2022-09-30T10:47:27;5.57;;;3.58;;
17794;SDS011;9021;50.882;4.326;2022-09-30T10:49:55;4.38;;;3.33;;
17794;SDS011;9021;50.882;4.326;2022-09-30T10:52:25;11.73;;;4.28;;
17794;SDS011;9021;50.882;4.326;2022-09-30T10:54:55;4.60;;;3.65;;
17794;SDS011;9021;50.882;4.326;2022-09-30T10:57:23;5.63;;;3.15;;
17794;SDS011;9021;50.882;4.326;2022-09-30T11:00:00;5.68;;;3.42;;
17794;SDS011;9021;50.882;4.326;2022-09-30T11:02:38;6.53;;;3.95;;
17794;SDS011;9021;50.882;4.326;2022-09-30T11:12:54;6.40;;;3.38;;
17794;SDS011;9021;50.882;4.326;2022-09-30T11:15:32;3.22;;;2.40;;
17794;SDS011;9021;50.882;4.326;2022-09-30T11:18:07;3.72;;;2.70;;
17794;SDS011;9021;50.882;4.326;2022-09-30T11:20:42;3.70;;;2.30;;
17794;SDS011;9021;50.882;4.326;2022-09-30T11:28:44;4.32;;;2.40;;
17794;SDS011;9021;50.882;4.326;2022-09-30T11:40:13;4.07;;;2.88;;
17794;SDS011;9021;50.882;4.326;2022-09-30T11:48:37;6.47;;;2.80;;
17794;SDS011;9021;50.882;4.326;2022-09-30T11:54:04;4.78;;;2.92;;
17794;SDS011;9021;50.882;4.326;2022-09-30T11:57:02;4.30;;;2.70;;
17794;SDS011;9021;50.882;4.326;2022-09-30T12:02:12;5.38;;;3.20;;
17794;SDS011;9021;50.882;4.326;2022-09-30T12:05:08;5.80;;;2.83;;
17794;SDS011;9021;50.882;4.326;2022-09-30T12:07:51;4.72;;;3.10;;
17794;SDS011;9021;50.882;4.326;2022-09-30T12:10:32;5.97;;;2.58;;
17794;SDS011;9021;50.882;4.326;2022-09-30T12:13:03;2.97;;;2.67;;
17794;SDS011;9021;50.882;4.326;2022-09-30T12:15:36;5.43;;;2.95;;
17794;SDS011;9021;50.882;4.326;2022-09-30T12:18:09;3.08;;;2.55;;
17794;SDS011;9021;50.882;4.326;2022-09-30T12:20:55;5.97;;;3.15;;
17794;SDS011;9021;50.882;4.326;2022-09-30T12:23:30;3.00;;;2.45;;
17794;SDS011;9021;50.882;4.326;2022-09-30T12:26:03;3.70;;;2.38;;
17794;SDS011;9021;50.882;4.326;2022-09-30T12:31:37;3.42;;;3.05;;
17794;SDS011;9021;50.882;4.326;2022-09-30T12:37:01;3.50;;;2.75;;
17794;SDS011;9021;50.882;4.326;2022-09-30T12:45:05;5.28;;;2.85;;
17794;SDS011;9021;50.882;4.326;2022-09-30T12:47:49;5.90;;;2.78;;
17794;SDS011;9021;50.882;4.326;2022-09-30T12:50:19;6.93;;;4.32;;
17794;SDS011;9021;50.882;4.326;2022-09-30T12:52:48;4.43;;;3.00;;
17794;SDS011;9021;50.882;4.326;2022-09-30T12:58:03;4.43;;;3.33;;
17794;SDS011;9021;50.882;4.326;2022-09-30T13:00:31;5.75;;;2.58;;
17794;SDS011;9021;50.882;4.326;2022-09-30T13:03:05;4.18;;;2.33;;
17794;SDS011;9021;50.882;4.326;2022-09-30T13:15:47;5.82;;;3.08;;
17794;SDS011;9021;50.882;4.326;2022-09-30T13:20:55;5.28;;;2.08;;
17794;SDS011;9021;50.882;4.326;2022-09-30T13:23:40;2.63;;;2.20;;
17794;SDS011;9021;50.882;4.326;2022-09-30T13:28:51;4.40;;;2.47;;
17794;SDS011;9021;50.882;4.326;2022-09-30T13:31:29;3.90;;;2.55;;
17794;SDS011;9021;50.882;4.326;2022-09-30T13:36:26;3.28;;;2.90;;
17794;SDS011;9021;50.882;4.326;2022-09-30T13:41:54;7.88;;;3.30;;
17794;SDS011;9021;50.882;4.326;2022-09-30T13:44:38;3.70;;;3.20;;
17794;SDS011;9021;50.882;4.326;2022-09-30T13:47:38;6.82;;;3.10;;
17794;SDS011;9021;50.882;4.326;2022-09-30T13:50:11;5.30;;;2.97;;
17794;SDS011;9021;50.882;4.326;2022-09-30T13:52:44;4.90;;;3.17;;
17794;SDS011;9021;50.882;4.326;2022-09-30T13:55:17;5.50;;;3.20;;
17794;SDS011;9021;50.882;4.326;2022-09-30T14:09:23;4.75;;;2.95;;
17794;SDS011;9021;50.882;4.326;2022-09-30T14:20:56;3.00;;;2.05;;
17794;SDS011;9021;50.882;4.326;2022-09-30T14:23:28;3.35;;;2.10;;
17794;SDS011;9021;50.882;4.326;2022-09-30T14:29:11;3.88;;;2.17;;
17794;SDS011;9021;50.882;4.326;2022-09-30T14:31:47;5.97;;;2.00;;
17794;SDS011;9021;50.882;4.326;2022-09-30T14:34:13;3.53;;;2.25;;
17794;SDS011;9021;50.882;4.326;2022-09-30T14:36:41;5.32;;;2.58;;
17794;SDS011;9021;50.882;4.326;2022-09-30T14:39:15;2.25;;;2.05;;
17794;SDS011;9021;50.882;4.326;2022-09-30T14:41:50;3.95;;;2.00;;
17794;SDS011;9021;50.882;4.326;2022-09-30T14:44:20;5.00;;;2.20;;
17794;SDS011;9021;50.882;4.326;2022-09-30T14:46:49;3.25;;;1.40;;
17794;SDS011;9021;50.882;4.326;2022-09-30T14:49:20;2.58;;;1.73;;
17794;SDS011;9021;50.882;4.326;2022-09-30T14:51:56;3.03;;;1.70;;
17794;SDS011;9021;50.882;4.326;2022-09-30T14:54:25;3.08;;;1.55;;
17794;SDS011;9021;50.882;4.326;2022-09-30T14:56:53;2.00;;;1.35;;
17794;SDS011;9021;50.882;4.326;2022-09-30T14:59:20;2.92;;;1.40;;
17794;SDS011;9021;50.882;4.326;2022-09-30T15:01:51;3.05;;;1.85;;
17794;SDS011;9021;50.882;4.326;2022-09-30T15:04:29;2.42;;;1.70;;
17794;SDS011;9021;50.882;4.326;2022-09-30T15:06:57;2.60;;;1.85;;
17794;SDS011;9021;50.882;4.326;2022-09-30T15:09:31;4.15;;;2.50;;
17794;SDS011;9021;50.882;4.326;2022-09-30T15:12:02;3.38;;;1.50;;
17794;SDS011;9021;50.882;4.326;2022-09-30T15:14:29;2.10;;;1.30;;
17794;SDS011;9021;50.882;4.326;2022-09-30T15:16:56;1.88;;;1.25;;
17794;SDS011;9021;50.882;4.326;2022-09-30T15:19:24;3.30;;;1.50;;
17794;SDS011;9021;50.882;4.326;2022-09-30T15:21:58;2.50;;;1.65;;
17794;SDS011;9021;50.882;4.326;2022-09-30T15:24:28;2.20;;;1.50;;
17794;SDS011;9021;50.882;4.326;2022-09-30T15:26:56;3.97;;;1.60;;
17794;SDS011;9021;50.882;4.326;2022-09-30T15:29:24;2.20;;;1.40;;
17794;SDS011;9021;50.882;4.326;2022-09-30T15:31:53;4.45;;;1.50;;
17794;SDS011;9021;50.882;4.326;2022-09-30T15:34:24;2.38;;;1.42;;
17794;SDS011;9021;50.882;4.326;2022-09-30T15:37:01;1.77;;;1.40;;
17794;SDS011;9021;50.882;4.326;2022-09-30T15:39:33;3.08;;;2.38;;
17794;SDS011;9021;50.882;4.326;2022-09-30T15:42:27;3.13;;;1.80;;
17794;SDS011;9021;50.882;4.326;2022-09-30T15:44:54;4.35;;;1.80;;
17794;SDS011;9021;50.882;4.326;2022-09-30T15:47:23;3.58;;;1.80;;
17794;SDS011;9021;50.882;4.326;2022-09-30T15:49:51;2.70;;;1.98;;
17794;SDS011;9021;50.882;4.326;2022-09-30T15:52:35;2.35;;;1.50;;
17794;SDS011;9021;50.882;4.326;2022-09-30T15:58:19;4.25;;;2.33;;
17794;SDS011;9021;50.882;4.326;2022-09-30T16:03:49;4.18;;;2.15;;
17794;SDS011;9021;50.882;4.326;2022-09-30T16:06:19;4.03;;;2.50;;
17794;SDS011;9021;50.882;4.326;2022-09-30T16:08:53;3.45;;;2.65;;
17794;SDS011;9021;50.882;4.326;2022-09-30T16:11:29;8.60;;;3.65;;
17794;SDS011;9021;50.882;4.326;2022-09-30T16:13:58;13.35;;;4.97;;
17794;SDS011;9021;50.882;4.326;2022-09-30T16:16:27;3.00;;;1.80;;
17794;SDS011;9021;50.882;4.326;2022-09-30T16:18:55;3.33;;;2.15;;
17794;SDS011;9021;50.882;4.326;2022-09-30T16:21:27;2.60;;;2.03;;
17794;SDS011;9021;50.882;4.326;2022-09-30T16:29:15;5.40;;;2.10;;
17794;SDS011;9021;50.882;4.326;2022-09-30T16:31:42;2.33;;;1.73;;
17794;SDS011;9021;50.882;4.326;2022-09-30T16:34:21;3.83;;;2.50;;
17794;SDS011;9021;50.882;4.326;2022-09-30T16:36:49;4.05;;;1.92;;
17794;SDS011;9021;50.882;4.326;2022-09-30T16:39:16;4.47;;;1.70;;
17794;SDS011;9021;50.882;4.326;2022-09-30T16:41:42;2.97;;;1.92;;
17794;SDS011;9021;50.882;4.326;2022-09-30T16:44:08;4.90;;;2.38;;
17794;SDS011;9021;50.882;4.326;2022-09-30T16:46:34;4.07;;;2.25;;
17794;SDS011;9021;50.882;4.326;2022-09-30T16:49:16;4.50;;;2.30;;
17794;SDS011;9021;50.882;4.326;2022-09-30T16:51:42;8.60;;;2.50;;
17794;SDS011;9021;50.882;4.326;2022-09-30T16:54:08;4.65;;;2.50;;
17794;SDS011;9021;50.882;4.326;2022-09-30T16:56:35;4.82;;;2.58;;
17794;SDS011;9021;50.882;4.326;2022-09-30T16:59:00;3.17;;;2.85;;
17794;SDS011;9021;50.882;4.326;2022-09-30T17:01:26;4.40;;;2.30;;
17794;SDS011;9021;50.882;4.326;2022-09-30T17:06:19;3.88;;;2.78;;
17794;SDS011;9021;50.882;4.326;2022-09-30T17:08:50;4.35;;;3.22;;
17794;SDS011;9021;50.882;4.326;2022-09-30T17:11:17;5.07;;;2.70;;
17794;SDS011;9021;50.882;4.326;2022-09-30T17:13:43;5.22;;;2.50;;
17794;SDS011;9021;50.882;4.326;2022-09-30T17:16:10;6.25;;;2.33;;
17794;SDS011;9021;50.882;4.326;2022-09-30T17:18:36;4.50;;;2.40;;
17794;SDS011;9021;50.882;4.326;2022-09-30T17:21:01;4.25;;;2.55;;
17794;SDS011;9021;50.882;4.326;2022-09-30T17:25:53;3.92;;;2.38;;
17794;SDS011;9021;50.882;4.326;2022-09-30T17:28:19;6.07;;;2.63;;
17794;SDS011;9021;50.882;4.326;2022-09-30T17:30:45;6.75;;;2.20;;
17794;SDS011;9021;50.882;4.326;2022-09-30T17:33:13;4.80;;;2.00;;
17794;SDS011;9021;50.882;4.326;2022-09-30T17:38:11;5.18;;;2.20;;
17794;SDS011;9021;50.882;4.326;2022-09-30T17:40:37;2.75;;;2.13;;
17794;SDS011;9021;50.882;4.326;2022-09-30T17:43:22;3.97;;;2.47;;
17794;SDS011;9021;50.882;4.326;2022-09-30T17:45:47;9.60;;;1.98;;
17794;SDS011;9021;50.882;4.326;2022-09-30T17:48:16;2.95;;;2.08;;
17794;SDS011;9021;50.882;4.326;2022-09-30T17:50:44;4.07;;;2.45;;
17794;SDS011;9021;50.882;4.326;2022-09-30T17:53:11;6.63;;;1.80;;
17794;SDS011;9021;50.882;4.326;2022-09-30T17:55:40;3.90;;;2.40;;
17794;SDS011;9021;50.882;4.326;2022-09-30T17:58:07;2.38;;;1.52;;
17794;SDS011;9021;50.882;4.326;2022-09-30T18:00:34;2.65;;;1.70;;
17794;SDS011;9021;50.882;4.326;2022-09-30T18:03:00;3.83;;;2.03;;
17794;SDS011;9021;50.882;4.326;2022-09-30T18:05:26;4.95;;;2.30;;
17794;SDS011;9021;50.882;4.326;2022-09-30T18:07:52;3.25;;;2.00;;
17794;SDS011;9021;50.882;4.326;2022-09-30T18:10:18;2.90;;;1.88;;
17794;SDS011;9021;50.882;4.326;2022-09-30T18:12:44;3.28;;;2.10;;
17794;SDS011;9021;50.882;4.326;2022-09-30T18:15:13;4.63;;;2.60;;
17794;SDS011;9021;50.882;4.326;2022-09-30T18:17:39;3.95;;;2.60;;
17794;SDS011;9021;50.882;4.326;2022-09-30T18:20:05;5.40;;;2.50;;
17794;SDS011;9021;50.882;4.326;2022-09-30T18:22:31;7.82;;;3.33;;
17794;SDS011;9021;50.882;4.326;2022-09-30T18:24:57;3.70;;;2.80;;
17794;SDS011;9021;50.882;4.326;2022-09-30T18:27:41;4.00;;;2.28;;
17794;SDS011;9021;50.882;4.326;2022-09-30T18:30:07;5.32;;;2.33;;
17794;SDS011;9021;50.882;4.326;2022-09-30T18:32:34;4.72;;;2.30;;
17794;SDS011;9021;50.882;4.326;2022-09-30T18:34:59;4.93;;;2.53;;
17794;SDS011;9021;50.882;4.326;2022-09-30T18:37:27;3.63;;;2.38;;
17794;SDS011;9021;50.882;4.326;2022-09-30T18:39:53;3.85;;;2.60;;
17794;SDS011;9021;50.882;4.326;2022-09-30T18:42:18;5.78;;;3.60;;
17794;SDS011;9021;50.882;4.326;2022-09-30T18:44:47;4.53;;;2.80;;
17794;SDS011;9021;50.882;4.326;2022-09-30T18:47:15;8.20;;;3.95;;
17794;SDS011;9021;50.882;4.326;2022-09-30T18:49:41;4.53;;;3.08;;
17794;SDS011;9021;50.882;4.326;2022-09-30T18:52:07;4.03;;;3.25;;
17794;SDS011;9021;50.882;4.326;2022-09-30T18:54:33;8.07;;;3.30;;